createdAt,value
2022-12-18T00:02:36.423Z,100.00
2022-12-18T00:05:52.427Z,100.00
2022-12-18T00:08:59.104Z,100.00
2022-12-18T00:15:22.359Z,100.00
2022-12-18T00:18:28.075Z,100.00
2022-12-18T00:21:34.266Z,100.00
2022-12-18T00:24:39.789Z,100.00
2022-12-18T00:27:45.212Z,100.00
2022-12-18T00:30:52.683Z,100.00
2022-12-18T00:33:58.968Z,100.00
2022-12-18T00:37:04.531Z,100.00
2022-12-18T00:40:10.897Z,100.00
2022-12-18T00:43:16.697Z,100.00
2022-12-18T00:46:22.085Z,100.00
2022-12-18T00:49:27.908Z,100.00
2022-12-18T00:52:34.043Z,100.00
2022-12-18T00:55:41.095Z,100.00
2022-12-18T00:58:46.571Z,100.00
2022-12-18T01:01:52.337Z,100.00
2022-12-18T01:04:59.784Z,100.00
2022-12-18T01:08:05.393Z,100.00
2022-12-18T01:11:21.893Z,100.00
2022-12-18T01:14:27.381Z,100.00
2022-12-18T01:17:32.597Z,100.00
2022-12-18T01:20:40.354Z,100.00
2022-12-18T01:23:45.953Z,100.00
2022-12-18T01:26:51.470Z,100.00
2022-12-18T01:29:56.991Z,100.00
2022-12-18T01:33:02.680Z,100.00
2022-12-18T01:36:08.798Z,98.52
2022-12-18T01:39:16.258Z,99.00
2022-12-18T01:42:23.126Z,98.93
2022-12-18T01:45:30.775Z,99.91
2022-12-18T01:48:36.707Z,100.00
2022-12-18T01:51:43.267Z,100.00
2022-12-18T01:54:51.941Z,100.00
2022-12-18T01:58:02.028Z,99.87
2022-12-18T02:01:07.809Z,99.68
2022-12-18T02:04:28.425Z,99.74
2022-12-18T02:07:49.771Z,99.52
2022-12-18T02:11:11.910Z,99.54
2022-12-18T02:14:59.126Z,96.99
2022-12-18T02:18:12.540Z,100.00
2022-12-18T02:21:20.968Z,100.00
2022-12-18T02:24:35.424Z,100.00
2022-12-18T02:27:46.554Z,100.00
2022-12-18T02:30:54.736Z,100.00
2022-12-18T02:34:04.085Z,100.00
2022-12-18T02:37:17.776Z,100.00
2022-12-18T02:40:28.119Z,100.00
2022-12-18T02:43:33.897Z,100.00
2022-12-18T02:46:47.667Z,100.00
2022-12-18T02:50:28.226Z,100.00
2022-12-18T02:53:50.494Z,100.00
2022-12-18T02:57:02.795Z,100.00
2022-12-18T03:00:15.826Z,100.00
2022-12-18T03:03:41.854Z,100.00
2022-12-18T03:06:55.060Z,100.00
2022-12-18T03:10:02.674Z,100.00
2022-12-18T03:13:16.834Z,100.00
2022-12-18T03:16:30.706Z,100.00
2022-12-18T03:19:37.172Z,100.00
2022-12-18T03:22:47.708Z,100.00
2022-12-18T03:26:03.052Z,100.00
2022-12-18T03:29:42.075Z,100.00
2022-12-18T03:33:10.352Z,100.00
2022-12-18T03:36:20.157Z,100.00
2022-12-18T03:39:27.026Z,100.00
2022-12-18T03:42:38.646Z,100.00
2022-12-18T03:45:55.607Z,100.00
2022-12-18T03:49:03.726Z,100.00
2022-12-18T03:52:18.437Z,100.00
2022-12-18T03:55:27.607Z,100.00
2022-12-18T03:58:41.478Z,100.00
2022-12-18T04:02:01.011Z,100.00
2022-12-18T04:05:10.479Z,100.00
2022-12-18T04:08:19.207Z,100.00
2022-12-18T04:11:32.494Z,100.00
2022-12-18T04:14:40.971Z,100.00
2022-12-18T04:17:50.779Z,100.00
2022-12-18T04:20:59.955Z,100.00
2022-12-18T04:24:06.231Z,100.00
2022-12-18T04:27:14.141Z,100.00
2022-12-18T04:30:24.168Z,100.00
2022-12-18T04:33:29.993Z,100.00
2022-12-18T04:36:35.683Z,100.00
2022-12-18T04:39:41.234Z,100.00
2022-12-18T04:42:53.647Z,100.00
2022-12-18T04:46:07.333Z,100.00
2022-12-18T04:49:12.736Z,100.00
2022-12-18T04:52:18.264Z,100.00
2022-12-18T04:55:27.142Z,100.00
2022-12-18T04:58:32.463Z,100.00
2022-12-18T05:01:37.997Z,100.00
2022-12-18T05:04:43.756Z,100.00
2022-12-18T05:07:49.176Z,100.00
2022-12-18T05:11:10.143Z,100.00
2022-12-18T05:14:16.605Z,100.00
2022-12-18T05:17:21.921Z,100.00
2022-12-18T05:20:28.378Z,100.00
2022-12-18T05:23:37.674Z,100.00
2022-12-18T05:26:43.394Z,100.00
2022-12-18T05:29:48.813Z,100.00
2022-12-18T05:32:54.627Z,100.00
2022-12-18T05:36:03.384Z,100.00
2022-12-18T05:39:09.185Z,100.00
2022-12-18T05:42:14.729Z,100.00
2022-12-18T05:45:21.732Z,100.00
2022-12-18T05:48:27.399Z,100.00
2022-12-18T05:51:33.197Z,100.00
2022-12-18T05:54:38.876Z,100.00
2022-12-18T05:57:44.536Z,100.00
2022-12-18T06:00:49.784Z,100.00
2022-12-18T06:03:56.487Z,100.00
2022-12-18T06:07:04.774Z,100.00
2022-12-18T06:10:10.590Z,100.00
2022-12-18T06:13:16.529Z,100.00
2022-12-18T06:16:22.205Z,100.00
2022-12-18T06:19:28.065Z,100.00
2022-12-18T06:22:33.786Z,100.00
2022-12-18T06:25:40.704Z,100.00
2022-12-18T06:28:46.332Z,100.00
2022-12-18T06:31:51.857Z,100.00
2022-12-18T06:34:57.414Z,100.00
2022-12-18T06:38:03.782Z,100.00
2022-12-18T06:41:10.540Z,100.00
2022-12-18T06:44:16.153Z,100.00
2022-12-18T06:47:21.882Z,100.00
2022-12-18T06:50:28.027Z,100.00
2022-12-18T06:53:34.159Z,100.00
2022-12-18T06:56:39.962Z,100.00
2022-12-18T06:59:45.926Z,100.00
2022-12-18T07:02:51.615Z,100.00
2022-12-18T07:05:57.472Z,100.00
2022-12-18T07:09:02.851Z,100.00
2022-12-18T07:12:09.395Z,100.00
2022-12-18T07:15:15.248Z,100.00
2022-12-18T07:18:20.608Z,100.00
2022-12-18T07:21:26.663Z,100.00
2022-12-18T07:24:34.984Z,100.00
2022-12-18T07:27:41.301Z,100.00
2022-12-18T07:30:46.599Z,100.00
2022-12-18T07:33:53.598Z,100.00
2022-12-18T07:36:59.293Z,100.00
2022-12-18T07:40:05.032Z,100.00
2022-12-18T07:43:10.488Z,100.00
2022-12-18T07:46:17.467Z,100.00
2022-12-18T07:49:22.815Z,100.00
2022-12-18T07:52:28.325Z,100.00
2022-12-18T07:55:54.819Z,100.00
2022-12-18T07:59:00.467Z,100.00
2022-12-18T08:02:09.132Z,100.00
2022-12-18T08:05:14.858Z,100.00
2022-12-18T08:08:20.572Z,100.00
2022-12-18T08:11:28.281Z,100.00
2022-12-18T08:14:33.357Z,100.00
2022-12-18T08:17:38.712Z,100.00
2022-12-18T08:20:44.070Z,100.00
2022-12-18T08:23:51.153Z,100.00
2022-12-18T08:27:27.819Z,100.00
2022-12-18T08:30:23.806Z,100.00
2022-12-18T08:33:29.504Z,100.00
2022-12-18T08:36:34.744Z,100.00
2022-12-18T08:39:39.706Z,100.00
2022-12-18T08:43:03.051Z,100.00
2022-12-18T08:46:08.431Z,100.00
2022-12-18T08:49:13.894Z,100.00
2022-12-18T08:52:19.340Z,100.00
2022-12-18T08:55:24.505Z,100.00
2022-12-18T08:58:30.631Z,100.00
2022-12-18T09:01:36.607Z,100.00
2022-12-18T09:04:42.596Z,100.00
2022-12-18T09:07:48.188Z,100.00
2022-12-18T09:10:53.781Z,100.00
2022-12-18T09:14:01.287Z,100.00
2022-12-18T09:17:06.903Z,100.00
2022-12-18T09:20:12.448Z,100.00
2022-12-18T09:23:17.912Z,100.00
2022-12-18T09:26:25.500Z,100.00
2022-12-18T09:29:31.662Z,100.00
2022-12-18T09:32:36.845Z,100.00
2022-12-18T09:35:44.036Z,98.39
2022-12-18T09:38:49.666Z,98.15
2022-12-18T09:41:58.895Z,91.40
2022-12-18T09:45:04.875Z,90.42
2022-12-18T09:48:22.231Z,92.87
2022-12-18T09:51:41.149Z,90.53
2022-12-18T09:55:11.959Z,85.02
2022-12-18T09:58:27.125Z,87.46
2022-12-18T10:01:43.212Z,87.99
2022-12-18T10:05:13.131Z,85.51
2022-12-18T10:08:50.549Z,92.24
2022-12-18T10:11:59.096Z,82.20
2022-12-18T10:15:13.000Z,85.77
2022-12-18T10:18:34.875Z,85.44
2022-12-18T10:21:46.780Z,84.72
2022-12-18T10:25:07.434Z,78.01
2022-12-18T10:28:15.672Z,81.85
2022-12-18T10:31:25.164Z,80.42
2022-12-18T10:34:30.625Z,82.03
2022-12-18T10:37:36.327Z,81.41
2022-12-18T10:40:55.336Z,81.10
2022-12-18T10:44:22.661Z,87.75
2022-12-18T10:47:28.392Z,77.32
2022-12-18T10:51:09.854Z,69.98
2022-12-18T10:54:18.305Z,75.41
2022-12-18T10:57:37.391Z,75.20
2022-12-18T11:00:42.798Z,77.11
2022-12-18T11:04:03.061Z,73.36
2022-12-18T11:07:11.428Z,74.64
2022-12-18T11:10:20.970Z,77.09
2022-12-18T11:13:30.927Z,78.88
2022-12-18T11:17:03.003Z,84.41
2022-12-18T11:20:35.828Z,74.73
2022-12-18T11:23:52.840Z,73.62
2022-12-18T11:27:05.234Z,72.34
2022-12-18T11:30:19.688Z,73.48
2022-12-18T11:33:25.541Z,73.96
2022-12-18T11:36:38.074Z,73.69
2022-12-18T11:39:55.815Z,72.73
2022-12-18T11:43:24.947Z,75.49
2022-12-18T11:46:37.565Z,80.32
2022-12-18T11:49:43.823Z,81.67
2022-12-18T11:52:55.943Z,79.00
2022-12-18T11:56:37.573Z,78.49
2022-12-18T11:59:53.927Z,77.34
2022-12-18T12:03:17.638Z,76.06
2022-12-18T12:06:39.917Z,74.78
2022-12-18T12:09:57.454Z,75.92
2022-12-18T12:13:17.971Z,75.49
2022-12-18T12:16:53.292Z,78.08
2022-12-18T12:20:07.326Z,78.52
2022-12-18T12:23:33.261Z,78.32
2022-12-18T12:27:23.517Z,79.26
2022-12-18T12:30:45.487Z,78.69
2022-12-18T12:34:10.513Z,80.94
2022-12-18T12:37:52.047Z,81.04
2022-12-18T12:41:28.496Z,82.15
2022-12-18T12:44:41.006Z,79.59
2022-12-18T12:47:48.157Z,80.60
2022-12-18T12:50:55.501Z,81.28
2022-12-18T12:54:05.864Z,82.09
2022-12-18T12:57:24.095Z,81.46
2022-12-18T13:00:41.108Z,83.10
2022-12-18T13:04:24.679Z,82.26
2022-12-18T13:07:39.383Z,83.25
2022-12-18T13:10:45.218Z,82.92
2022-12-18T13:13:57.363Z,87.18
2022-12-18T13:17:16.423Z,84.70
2022-12-18T13:20:22.643Z,84.77
2022-12-18T13:23:40.523Z,85.54
2022-12-18T13:26:47.035Z,85.54
2022-12-18T13:29:53.217Z,88.96
2022-12-18T13:33:17.790Z,88.38
2022-12-18T13:36:34.836Z,88.38
2022-12-18T13:39:40.906Z,89.71
2022-12-18T13:43:04.989Z,86.89
2022-12-18T13:46:32.189Z,87.79
2022-12-18T13:49:41.465Z,90.72
2022-12-18T13:52:47.076Z,89.67
2022-12-18T13:55:53.466Z,90.76
2022-12-18T13:59:23.264Z,90.68
2022-12-18T14:02:31.315Z,90.97
2022-12-18T14:05:40.242Z,90.65
2022-12-18T14:08:49.313Z,92.25
2022-12-18T14:12:17.148Z,92.10
2022-12-18T14:15:33.112Z,93.62
2022-12-18T14:18:49.677Z,93.41
2022-12-18T14:21:55.437Z,95.70
2022-12-18T14:25:17.030Z,96.96
2022-12-18T14:28:27.451Z,97.95
2022-12-18T14:31:33.338Z,97.04
2022-12-18T14:34:38.741Z,98.41
2022-12-18T14:37:44.073Z,98.67
2022-12-18T14:40:53.699Z,99.40
2022-12-18T14:44:08.371Z,100.00
2022-12-18T14:47:17.950Z,100.00
2022-12-18T14:50:23.903Z,100.00
2022-12-18T14:54:01.876Z,100.00
2022-12-18T14:57:17.828Z,100.00
2022-12-18T15:00:25.934Z,100.00
2022-12-18T15:03:31.399Z,100.00
2022-12-18T15:06:39.073Z,100.00
2022-12-18T15:10:03.137Z,100.00
2022-12-18T15:13:11.299Z,100.00
2022-12-18T15:16:18.241Z,100.00
2022-12-18T15:19:40.076Z,100.00
2022-12-18T15:22:48.753Z,100.00
2022-12-18T15:26:03.673Z,100.00
2022-12-18T15:29:22.005Z,100.00
2022-12-18T15:32:27.526Z,100.00
2022-12-18T15:35:32.998Z,100.00
2022-12-18T15:38:38.454Z,100.00
2022-12-18T15:42:04.804Z,100.00
2022-12-18T15:45:14.065Z,100.00
2022-12-18T15:48:24.567Z,100.00
2022-12-18T15:51:38.207Z,100.00
2022-12-18T15:55:02.549Z,100.00
2022-12-18T15:58:09.366Z,100.00
2022-12-18T16:01:15.397Z,100.00
2022-12-18T16:04:23.270Z,100.00
2022-12-18T16:07:30.703Z,100.00
2022-12-18T16:10:36.931Z,100.00
2022-12-18T16:13:44.253Z,100.00
2022-12-18T16:16:52.821Z,100.00
2022-12-18T16:19:58.425Z,100.00
2022-12-18T16:23:03.842Z,100.00
2022-12-18T16:26:09.272Z,100.00
2022-12-18T16:29:14.762Z,100.00
2022-12-18T16:32:22.473Z,100.00
2022-12-18T16:35:29.719Z,100.00
2022-12-18T16:38:35.149Z,100.00
2022-12-18T16:41:40.521Z,100.00
2022-12-18T16:44:47.112Z,100.00
2022-12-18T16:47:52.606Z,100.00
2022-12-18T16:51:06.091Z,100.00
2022-12-18T16:54:15.970Z,100.00
2022-12-18T16:57:25.323Z,100.00
2022-12-18T17:00:31.651Z,100.00
2022-12-18T17:03:37.538Z,100.00
2022-12-18T17:06:45.317Z,100.00
2022-12-18T17:09:51.376Z,100.00
2022-12-18T17:12:57.108Z,100.00
2022-12-18T17:16:09.951Z,100.00
2022-12-18T17:19:17.607Z,100.00
2022-12-18T17:22:26.101Z,100.00
2022-12-18T17:25:31.128Z,100.00
2022-12-18T17:28:38.101Z,100.00
2022-12-18T17:31:44.093Z,100.00
2022-12-18T17:34:49.295Z,100.00
2022-12-18T17:37:55.059Z,100.00
2022-12-18T17:41:05.669Z,100.00
2022-12-18T17:44:11.192Z,100.00
2022-12-18T17:47:17.126Z,100.00
2022-12-18T17:50:22.632Z,100.00
2022-12-18T17:53:28.056Z,100.00
2022-12-18T17:56:33.686Z,100.00
2022-12-18T17:59:39.544Z,100.00
2022-12-18T18:02:45.366Z,100.00
2022-12-18T18:05:57.548Z,100.00
2022-12-18T18:09:03.650Z,100.00
2022-12-18T18:12:28.160Z,100.00
2022-12-18T18:15:33.711Z,100.00
2022-12-18T18:18:40.591Z,100.00
2022-12-18T18:21:48.243Z,100.00
2022-12-18T18:24:54.127Z,100.00
2022-12-18T18:28:00.587Z,100.00
2022-12-18T18:31:08.041Z,100.00
2022-12-18T18:34:42.525Z,100.00
2022-12-18T18:37:49.256Z,100.00
2022-12-18T18:41:05.422Z,100.00
2022-12-18T18:44:12.450Z,100.00
2022-12-18T18:47:17.876Z,100.00
2022-12-18T18:50:23.684Z,100.00
2022-12-18T18:53:29.494Z,100.00
2022-12-18T18:57:11.759Z,100.00
2022-12-18T19:00:00.639Z,100.00
2022-12-18T19:03:07.066Z,100.00
2022-12-18T19:06:28.422Z,100.00
2022-12-18T19:09:36.817Z,100.00
2022-12-18T19:13:00.943Z,100.00
2022-12-18T19:16:09.576Z,100.00
2022-12-18T19:19:18.223Z,100.00
2022-12-18T19:22:24.229Z,100.00
2022-12-18T19:25:38.346Z,100.00
2022-12-18T19:28:47.831Z,100.00
2022-12-18T19:31:53.789Z,100.00
2022-12-18T19:34:59.526Z,100.00
2022-12-18T19:38:05.443Z,100.00
2022-12-18T19:41:11.377Z,100.00
2022-12-18T19:44:18.435Z,100.00
2022-12-18T19:47:24.579Z,100.00
2022-12-18T19:50:30.322Z,100.00
2022-12-18T19:53:38.479Z,100.00
2022-12-18T19:56:44.302Z,100.00
2022-12-18T19:59:49.893Z,100.00
2022-12-18T20:03:02.469Z,100.00
2022-12-18T20:06:20.561Z,100.00
2022-12-18T20:09:26.651Z,100.00
2022-12-18T20:12:34.161Z,100.00
2022-12-18T20:15:45.015Z,100.00
2022-12-18T20:18:51.437Z,100.00
2022-12-18T20:21:58.161Z,100.00
2022-12-18T20:25:03.653Z,100.00
2022-12-18T20:28:09.873Z,100.00
2022-12-18T20:31:15.567Z,100.00
2022-12-18T20:34:21.391Z,100.00
2022-12-18T20:37:27.328Z,100.00
2022-12-18T20:40:34.639Z,100.00
2022-12-18T20:43:40.707Z,100.00
2022-12-18T20:46:46.706Z,100.00
2022-12-18T20:49:52.622Z,100.00
2022-12-18T20:52:58.123Z,100.00
2022-12-18T20:56:18.905Z,100.00
2022-12-18T20:59:27.595Z,100.00
2022-12-18T21:02:33.709Z,100.00
2022-12-18T21:05:40.079Z,100.00
2022-12-18T21:08:47.564Z,100.00
2022-12-18T21:12:14.192Z,100.00
2022-12-18T21:15:25.300Z,100.00
2022-12-18T21:18:34.063Z,100.00
2022-12-18T21:21:40.475Z,100.00
2022-12-18T21:24:46.856Z,100.00
2022-12-18T21:27:52.804Z,100.00
2022-12-18T21:30:58.928Z,100.00
2022-12-18T21:34:06.284Z,100.00
2022-12-18T21:37:11.821Z,100.00
2022-12-18T21:40:18.254Z,100.00
2022-12-18T21:43:46.933Z,100.00
2022-12-18T21:46:58.202Z,100.00
2022-12-18T21:50:08.065Z,100.00
2022-12-18T21:53:13.658Z,100.00
2022-12-18T21:56:19.563Z,100.00
2022-12-18T21:59:29.326Z,100.00
2022-12-18T22:02:35.198Z,100.00
2022-12-18T22:05:41.026Z,100.00
2022-12-18T22:08:46.622Z,100.00
2022-12-18T22:11:53.179Z,100.00
2022-12-18T22:14:59.122Z,100.00
2022-12-18T22:18:04.761Z,100.00
2022-12-18T22:21:29.867Z,100.00
2022-12-18T22:24:35.392Z,100.00
2022-12-18T22:27:41.106Z,100.00
2022-12-18T22:30:46.615Z,100.00
2022-12-18T22:33:52.130Z,100.00
2022-12-18T22:36:57.658Z,100.00
2022-12-18T22:40:04.479Z,100.00
2022-12-18T22:43:10.917Z,100.00
2022-12-18T22:46:19.699Z,100.00
2022-12-18T22:49:26.780Z,100.00
2022-12-18T22:52:32.420Z,100.00
2022-12-18T22:55:38.146Z,100.00
2022-12-18T22:58:44.481Z,100.00
2022-12-18T23:01:58.339Z,100.00
2022-12-18T23:05:10.719Z,100.00
2022-12-18T23:08:16.410Z,100.00
2022-12-18T23:11:21.885Z,100.00
2022-12-18T23:14:29.047Z,100.00
2022-12-18T23:17:37.087Z,100.00
2022-12-18T23:20:42.498Z,100.00
2022-12-18T23:23:49.118Z,100.00
2022-12-18T23:26:55.062Z,100.00
2022-12-18T23:30:00.747Z,100.00
2022-12-18T23:33:06.089Z,100.00
2022-12-18T23:36:13.196Z,100.00
2022-12-18T23:39:29.898Z,100.00
2022-12-18T23:42:37.320Z,100.00
2022-12-18T23:45:43.097Z,100.00
2022-12-18T23:48:49.451Z,100.00
2022-12-18T23:51:55.501Z,100.00
2022-12-18T23:55:00.943Z,100.00
2022-12-18T23:58:06.971Z,100.00
